sensor_id;sensor_type;location;lat;lon;timestamp;P1;durP1;ratioP1;P2;durP2;ratioP2
2320;SDS011;15376;48.540;9.268;2023-02-21T00:01:34;3.73;;;3.10;;
2320;SDS011;15376;48.540;9.268;2023-02-21T00:04:18;8.10;;;4.43;;
2320;SDS011;15376;48.540;9.268;2023-02-21T00:07:02;4.07;;;3.20;;
2320;SDS011;15376;48.540;9.268;2023-02-21T00:09:46;5.30;;;3.83;;
2320;SDS011;15376;48.540;9.268;2023-02-21T00:12:30;4.03;;;3.60;;
2320;SDS011;15376;48.540;9.268;2023-02-21T00:15:14;4.43;;;3.40;;
2320;SDS011;15376;48.540;9.268;2023-02-21T00:17:58;6.33;;;3.67;;
2320;SDS011;15376;48.540;9.268;2023-02-21T00:20:41;7.83;;;3.80;;
2320;SDS011;15376;48.540;9.268;2023-02-21T00:23:25;4.80;;;3.70;;
2320;SDS011;15376;48.540;9.268;2023-02-21T00:26:09;4.53;;;3.03;;
2320;SDS011;15376;48.540;9.268;2023-02-21T00:28:53;5.37;;;3.30;;
2320;SDS011;15376;48.540;9.268;2023-02-21T00:31:37;4.33;;;3.60;;
2320;SDS011;15376;48.540;9.268;2023-02-21T00:34:21;5.13;;;3.13;;
2320;SDS011;15376;48.540;9.268;2023-02-21T00:37:05;5.20;;;2.90;;
2320;SDS011;15376;48.540;9.268;2023-02-21T00:39:49;2.87;;;2.63;;
2320;SDS011;15376;48.540;9.268;2023-02-21T00:42:33;5.03;;;2.83;;
2320;SDS011;15376;48.540;9.268;2023-02-21T00:45:17;3.23;;;2.53;;
2320;SDS011;15376;48.540;9.268;2023-02-21T00:48:00;3.23;;;2.93;;
2320;SDS011;15376;48.540;9.268;2023-02-21T00:50:44;6.37;;;3.20;;
2320;SDS011;15376;48.540;9.268;2023-02-21T00:53:28;4.20;;;3.33;;
2320;SDS011;15376;48.540;9.268;2023-02-21T00:56:12;2.80;;;2.60;;
2320;SDS011;15376;48.540;9.268;2023-02-21T00:58:56;4.00;;;3.43;;
2320;SDS011;15376;48.540;9.268;2023-02-21T01:01:40;4.57;;;3.40;;
2320;SDS011;15376;48.540;9.268;2023-02-21T01:04:24;3.43;;;3.13;;
2320;SDS011;15376;48.540;9.268;2023-02-21T01:07:08;4.67;;;2.70;;
2320;SDS011;15376;48.540;9.268;2023-02-21T01:09:52;2.90;;;2.70;;
2320;SDS011;15376;48.540;9.268;2023-02-21T01:12:36;2.67;;;2.40;;
2320;SDS011;15376;48.540;9.268;2023-02-21T01:15:20;4.33;;;3.10;;
2320;SDS011;15376;48.540;9.268;2023-02-21T01:18:04;3.20;;;2.90;;
2320;SDS011;15376;48.540;9.268;2023-02-21T01:20:48;4.70;;;3.23;;
2320;SDS011;15376;48.540;9.268;2023-02-21T01:23:32;2.70;;;2.23;;
2320;SDS011;15376;48.540;9.268;2023-02-21T01:26:16;7.93;;;2.60;;
2320;SDS011;15376;48.540;9.268;2023-02-21T01:29:00;4.30;;;2.63;;
2320;SDS011;15376;48.540;9.268;2023-02-21T01:31:43;3.27;;;2.97;;
2320;SDS011;15376;48.540;9.268;2023-02-21T01:34:27;4.30;;;2.43;;
2320;SDS011;15376;48.540;9.268;2023-02-21T01:37:11;3.93;;;3.03;;
2320;SDS011;15376;48.540;9.268;2023-02-21T01:39:55;2.40;;;2.20;;
2320;SDS011;15376;48.540;9.268;2023-02-21T01:42:39;3.73;;;2.67;;
2320;SDS011;15376;48.540;9.268;2023-02-21T01:48:28;3.30;;;2.87;;
2320;SDS011;15376;48.540;9.268;2023-02-21T01:51:14;3.13;;;2.80;;
2320;SDS011;15376;48.540;9.268;2023-02-21T01:54:00;4.33;;;2.97;;
2320;SDS011;15376;48.540;9.268;2023-02-21T01:56:45;6.10;;;2.90;;
2320;SDS011;15376;48.540;9.268;2023-02-21T01:59:29;2.77;;;2.57;;
2320;SDS011;15376;48.540;9.268;2023-02-21T02:02:31;3.60;;;2.53;;
2320;SDS011;15376;48.540;9.268;2023-02-21T02:05:20;2.90;;;2.53;;
2320;SDS011;15376;48.540;9.268;2023-02-21T02:08:04;2.47;;;2.27;;
2320;SDS011;15376;48.540;9.268;2023-02-21T02:10:50;4.80;;;2.77;;
2320;SDS011;15376;48.540;9.268;2023-02-21T02:13:52;2.80;;;2.00;;
2320;SDS011;15376;48.540;9.268;2023-02-21T02:22:23;3.10;;;2.47;;
2320;SDS011;15376;48.540;9.268;2023-02-21T02:27:43;2.70;;;2.50;;
2320;SDS011;15376;48.540;9.268;2023-02-21T02:35:45;10.30;;;3.67;;
2320;SDS011;15376;48.540;9.268;2023-02-21T02:38:25;3.77;;;2.80;;
2320;SDS011;15376;48.540;9.268;2023-02-21T02:41:03;2.77;;;2.47;;
2320;SDS011;15376;48.540;9.268;2023-02-21T02:48:49;3.33;;;2.50;;
2320;SDS011;15376;48.540;9.268;2023-02-21T02:51:20;4.33;;;3.03;;
2320;SDS011;15376;48.540;9.268;2023-02-21T02:53:45;3.23;;;2.70;;
2320;SDS011;15376;48.540;9.268;2023-02-21T02:56:12;3.50;;;3.07;;
2320;SDS011;15376;48.540;9.268;2023-02-21T02:58:39;4.40;;;2.87;;
2320;SDS011;15376;48.540;9.268;2023-02-21T03:09:13;4.30;;;2.37;;
2320;SDS011;15376;48.540;9.268;2023-02-21T03:14:29;3.10;;;2.17;;
2320;SDS011;15376;48.540;9.268;2023-02-21T03:17:03;3.23;;;2.73;;
2320;SDS011;15376;48.540;9.268;2023-02-21T03:19:36;3.03;;;2.83;;
2320;SDS011;15376;48.540;9.268;2023-02-21T03:22:12;4.00;;;2.87;;
2320;SDS011;15376;48.540;9.268;2023-02-21T03:24:41;3.17;;;2.80;;
2320;SDS011;15376;48.540;9.268;2023-02-21T03:27:09;3.10;;;2.83;;
2320;SDS011;15376;48.540;9.268;2023-02-21T03:29:37;3.03;;;2.70;;
2320;SDS011;15376;48.540;9.268;2023-02-21T03:32:38;4.73;;;2.60;;
2320;SDS011;15376;48.540;9.268;2023-02-21T03:35:04;3.07;;;2.67;;
2320;SDS011;15376;48.540;9.268;2023-02-21T03:37:32;3.57;;;2.97;;
2320;SDS011;15376;48.540;9.268;2023-02-21T03:40:00;3.07;;;2.80;;
2320;SDS011;15376;48.540;9.268;2023-02-21T03:42:25;3.53;;;2.70;;
2320;SDS011;15376;48.540;9.268;2023-02-21T03:44:51;10.43;;;3.20;;
2320;SDS011;15376;48.540;9.268;2023-02-21T03:47:16;3.10;;;2.43;;
2320;SDS011;15376;48.540;9.268;2023-02-21T03:49:41;3.03;;;2.53;;
2320;SDS011;15376;48.540;9.268;2023-02-21T03:52:08;4.43;;;2.60;;
2320;SDS011;15376;48.540;9.268;2023-02-21T03:54:36;2.93;;;2.60;;
2320;SDS011;15376;48.540;9.268;2023-02-21T03:57:02;5.83;;;2.77;;
2320;SDS011;15376;48.540;9.268;2023-02-21T03:59:27;3.40;;;3.10;;
2320;SDS011;15376;48.540;9.268;2023-02-21T04:01:53;7.90;;;2.67;;
2320;SDS011;15376;48.540;9.268;2023-02-21T04:04:18;9.43;;;2.80;;
2320;SDS011;15376;48.540;9.268;2023-02-21T04:06:43;4.50;;;3.00;;
2320;SDS011;15376;48.540;9.268;2023-02-21T04:09:09;6.10;;;3.07;;
2320;SDS011;15376;48.540;9.268;2023-02-21T04:11:34;3.87;;;2.90;;
2320;SDS011;15376;48.540;9.268;2023-02-21T04:13:59;3.83;;;3.50;;
2320;SDS011;15376;48.540;9.268;2023-02-21T04:16:25;3.00;;;2.80;;
2320;SDS011;15376;48.540;9.268;2023-02-21T04:18:50;4.90;;;3.30;;
2320;SDS011;15376;48.540;9.268;2023-02-21T04:21:17;6.33;;;3.07;;
2320;SDS011;15376;48.540;9.268;2023-02-21T04:23:43;4.10;;;3.70;;
2320;SDS011;15376;48.540;9.268;2023-02-21T04:26:08;5.87;;;2.90;;
2320;SDS011;15376;48.540;9.268;2023-02-21T04:28:33;3.83;;;2.97;;
2320;SDS011;15376;48.540;9.268;2023-02-21T04:30:59;5.20;;;3.40;;
2320;SDS011;15376;48.540;9.268;2023-02-21T04:33:24;3.20;;;2.90;;
2320;SDS011;15376;48.540;9.268;2023-02-21T04:35:50;3.50;;;3.20;;
2320;SDS011;15376;48.540;9.268;2023-02-21T04:38:15;4.57;;;3.40;;
2320;SDS011;15376;48.540;9.268;2023-02-21T04:40:41;6.60;;;3.37;;
2320;SDS011;15376;48.540;9.268;2023-02-21T04:43:06;6.13;;;3.40;;
2320;SDS011;15376;48.540;9.268;2023-02-21T04:45:31;5.80;;;3.33;;
2320;SDS011;15376;48.540;9.268;2023-02-21T04:47:57;6.97;;;4.20;;
2320;SDS011;15376;48.540;9.268;2023-02-21T04:50:22;4.53;;;3.00;;
2320;SDS011;15376;48.540;9.268;2023-02-21T04:52:47;7.90;;;4.37;;
2320;SDS011;15376;48.540;9.268;2023-02-21T04:55:13;6.40;;;3.57;;
2320;SDS011;15376;48.540;9.268;2023-02-21T04:57:39;6.70;;;3.17;;
2320;SDS011;15376;48.540;9.268;2023-02-21T05:00:05;4.57;;;3.73;;
2320;SDS011;15376;48.540;9.268;2023-02-21T05:02:32;4.30;;;3.50;;
2320;SDS011;15376;48.540;9.268;2023-02-21T05:04:58;5.90;;;3.70;;
2320;SDS011;15376;48.540;9.268;2023-02-21T05:07:23;7.20;;;4.10;;
2320;SDS011;15376;48.540;9.268;2023-02-21T05:09:49;5.40;;;4.43;;
2320;SDS011;15376;48.540;9.268;2023-02-21T05:12:15;5.73;;;3.67;;
2320;SDS011;15376;48.540;9.268;2023-02-21T05:14:40;5.50;;;3.60;;
2320;SDS011;15376;48.540;9.268;2023-02-21T05:17:06;3.90;;;3.17;;
2320;SDS011;15376;48.540;9.268;2023-02-21T05:19:31;9.70;;;4.87;;
2320;SDS011;15376;48.540;9.268;2023-02-21T05:21:58;2.90;;;2.70;;
2320;SDS011;15376;48.540;9.268;2023-02-21T05:24:26;3.83;;;3.10;;
2320;SDS011;15376;48.540;9.268;2023-02-21T05:26:52;5.43;;;3.37;;
2320;SDS011;15376;48.540;9.268;2023-02-21T05:29:18;3.50;;;2.70;;
2320;SDS011;15376;48.540;9.268;2023-02-21T05:31:44;5.20;;;3.50;;
2320;SDS011;15376;48.540;9.268;2023-02-21T05:34:10;4.30;;;3.20;;
2320;SDS011;15376;48.540;9.268;2023-02-21T05:36:36;3.87;;;3.47;;
2320;SDS011;15376;48.540;9.268;2023-02-21T05:39:02;7.10;;;3.60;;
2320;SDS011;15376;48.540;9.268;2023-02-21T05:41:28;3.90;;;2.97;;
2320;SDS011;15376;48.540;9.268;2023-02-21T05:43:54;3.50;;;2.90;;
2320;SDS011;15376;48.540;9.268;2023-02-21T05:46:23;11.40;;;3.07;;
2320;SDS011;15376;48.540;9.268;2023-02-21T05:48:49;3.43;;;3.00;;
2320;SDS011;15376;48.540;9.268;2023-02-21T05:51:15;4.03;;;3.10;;
2320;SDS011;15376;48.540;9.268;2023-02-21T05:53:40;4.87;;;3.47;;
2320;SDS011;15376;48.540;9.268;2023-02-21T05:56:06;7.27;;;4.07;;
2320;SDS011;15376;48.540;9.268;2023-02-21T05:58:31;8.43;;;4.10;;
2320;SDS011;15376;48.540;9.268;2023-02-21T06:00:57;5.00;;;3.67;;
2320;SDS011;15376;48.540;9.268;2023-02-21T06:03:22;9.00;;;4.10;;
2320;SDS011;15376;48.540;9.268;2023-02-21T06:05:47;8.93;;;3.63;;
2320;SDS011;15376;48.540;9.268;2023-02-21T06:08:12;5.57;;;3.40;;
2320;SDS011;15376;48.540;9.268;2023-02-21T06:10:38;3.93;;;3.17;;
2320;SDS011;15376;48.540;9.268;2023-02-21T06:13:03;5.70;;;4.00;;
2320;SDS011;15376;48.540;9.268;2023-02-21T06:15:28;7.80;;;5.07;;
2320;SDS011;15376;48.540;9.268;2023-02-21T06:17:54;10.07;;;3.50;;
2320;SDS011;15376;48.540;9.268;2023-02-21T06:20:19;4.07;;;3.47;;
2320;SDS011;15376;48.540;9.268;2023-02-21T06:22:44;6.77;;;3.50;;
2320;SDS011;15376;48.540;9.268;2023-02-21T06:25:11;6.50;;;3.53;;
2320;SDS011;15376;48.540;9.268;2023-02-21T06:27:36;3.10;;;2.83;;
2320;SDS011;15376;48.540;9.268;2023-02-21T06:30:03;4.60;;;3.50;;
2320;SDS011;15376;48.540;9.268;2023-02-21T06:32:29;5.17;;;3.67;;
2320;SDS011;15376;48.540;9.268;2023-02-21T06:34:55;4.00;;;3.70;;
2320;SDS011;15376;48.540;9.268;2023-02-21T06:37:20;9.33;;;4.37;;
2320;SDS011;15376;48.540;9.268;2023-02-21T06:39:46;5.60;;;3.60;;
2320;SDS011;15376;48.540;9.268;2023-02-21T06:42:15;5.60;;;3.60;;
2320;SDS011;15376;48.540;9.268;2023-02-21T06:44:42;7.03;;;4.13;;
2320;SDS011;15376;48.540;9.268;2023-02-21T06:47:08;5.97;;;3.73;;
2320;SDS011;15376;48.540;9.268;2023-02-21T06:49:34;9.93;;;4.83;;
2320;SDS011;15376;48.540;9.268;2023-02-21T06:51:59;14.00;;;4.00;;
2320;SDS011;15376;48.540;9.268;2023-02-21T06:54:25;9.57;;;4.17;;
2320;SDS011;15376;48.540;9.268;2023-02-21T06:56:50;6.30;;;3.77;;
2320;SDS011;15376;48.540;9.268;2023-02-21T06:59:15;13.63;;;4.20;;
2320;SDS011;15376;48.540;9.268;2023-02-21T07:01:41;5.17;;;4.10;;
2320;SDS011;15376;48.540;9.268;2023-02-21T07:04:06;7.10;;;3.80;;
2320;SDS011;15376;48.540;9.268;2023-02-21T07:06:32;7.50;;;3.50;;
2320;SDS011;15376;48.540;9.268;2023-02-21T07:08:57;5.03;;;4.10;;
2320;SDS011;15376;48.540;9.268;2023-02-21T07:11:23;9.00;;;4.37;;
2320;SDS011;15376;48.540;9.268;2023-02-21T07:13:51;7.20;;;3.57;;
2320;SDS011;15376;48.540;9.268;2023-02-21T07:16:18;7.30;;;4.13;;
2320;SDS011;15376;48.540;9.268;2023-02-21T07:18:45;4.77;;;3.80;;
2320;SDS011;15376;48.540;9.268;2023-02-21T07:21:12;6.10;;;5.60;;
2320;SDS011;15376;48.540;9.268;2023-02-21T07:23:38;11.13;;;3.87;;
2320;SDS011;15376;48.540;9.268;2023-02-21T07:26:04;5.30;;;3.50;;
2320;SDS011;15376;48.540;9.268;2023-02-21T07:28:29;6.20;;;4.10;;
2320;SDS011;15376;48.540;9.268;2023-02-21T07:30:54;5.60;;;4.30;;
2320;SDS011;15376;48.540;9.268;2023-02-21T07:33:20;6.90;;;4.40;;
2320;SDS011;15376;48.540;9.268;2023-02-21T07:35:45;5.93;;;4.37;;
2320;SDS011;15376;48.540;9.268;2023-02-21T07:38:20;6.73;;;4.40;;
2320;SDS011;15376;48.540;9.268;2023-02-21T07:40:46;7.63;;;4.27;;
2320;SDS011;15376;48.540;9.268;2023-02-21T07:43:12;8.13;;;4.53;;
2320;SDS011;15376;48.540;9.268;2023-02-21T07:45:37;8.70;;;5.50;;
2320;SDS011;15376;48.540;9.268;2023-02-21T07:48:02;7.07;;;5.43;;
2320;SDS011;15376;48.540;9.268;2023-02-21T07:50:28;15.40;;;5.03;;
2320;SDS011;15376;48.540;9.268;2023-02-21T07:52:53;8.03;;;4.40;;
2320;SDS011;15376;48.540;9.268;2023-02-21T07:55:20;8.37;;;4.90;;
2320;SDS011;15376;48.540;9.268;2023-02-21T07:57:46;12.13;;;7.50;;
2320;SDS011;15376;48.540;9.268;2023-02-21T08:00:11;8.00;;;6.00;;
2320;SDS011;15376;48.540;9.268;2023-02-21T08:02:37;19.47;;;11.63;;
2320;SDS011;15376;48.540;9.268;2023-02-21T08:05:04;15.67;;;5.90;;
2320;SDS011;15376;48.540;9.268;2023-02-21T08:07:30;12.73;;;4.70;;
2320;SDS011;15376;48.540;9.268;2023-02-21T08:09:56;14.00;;;9.50;;
2320;SDS011;15376;48.540;9.268;2023-02-21T08:12:21;18.93;;;11.33;;
2320;SDS011;15376;48.540;9.268;2023-02-21T08:14:46;6.80;;;4.50;;
2320;SDS011;15376;48.540;9.268;2023-02-21T08:17:11;9.23;;;5.03;;
2320;SDS011;15376;48.540;9.268;2023-02-21T08:19:38;7.80;;;5.57;;
2320;SDS011;15376;48.540;9.268;2023-02-21T08:22:03;10.27;;;5.93;;
2320;SDS011;15376;48.540;9.268;2023-02-21T08:24:29;8.20;;;5.87;;
2320;SDS011;15376;48.540;9.268;2023-02-21T08:26:54;8.27;;;5.00;;
2320;SDS011;15376;48.540;9.268;2023-02-21T08:29:21;7.97;;;5.27;;
2320;SDS011;15376;48.540;9.268;2023-02-21T08:31:47;6.07;;;5.27;;
2320;SDS011;15376;48.540;9.268;2023-02-21T08:34:12;5.53;;;5.00;;
2320;SDS011;15376;48.540;9.268;2023-02-21T08:36:39;9.70;;;4.80;;
2320;SDS011;15376;48.540;9.268;2023-02-21T08:39:07;5.97;;;5.20;;
2320;SDS011;15376;48.540;9.268;2023-02-21T08:41:43;5.50;;;4.87;;
2320;SDS011;15376;48.540;9.268;2023-02-21T08:44:10;9.83;;;5.40;;
2320;SDS011;15376;48.540;9.268;2023-02-21T08:46:37;10.60;;;5.60;;
2320;SDS011;15376;48.540;9.268;2023-02-21T08:49:04;6.37;;;4.83;;
2320;SDS011;15376;48.540;9.268;2023-02-21T08:51:30;6.70;;;5.40;;
2320;SDS011;15376;48.540;9.268;2023-02-21T08:53:57;6.50;;;4.47;;
2320;SDS011;15376;48.540;9.268;2023-02-21T08:56:23;10.27;;;6.97;;
2320;SDS011;15376;48.540;9.268;2023-02-21T08:58:49;6.80;;;4.87;;
2320;SDS011;15376;48.540;9.268;2023-02-21T09:01:15;7.17;;;5.30;;
2320;SDS011;15376;48.540;9.268;2023-02-21T09:03:41;6.87;;;5.27;;
2320;SDS011;15376;48.540;9.268;2023-02-21T09:06:07;12.50;;;8.10;;
2320;SDS011;15376;48.540;9.268;2023-02-21T09:08:33;6.33;;;4.53;;
2320;SDS011;15376;48.540;9.268;2023-02-21T09:11:00;7.63;;;4.93;;
2320;SDS011;15376;48.540;9.268;2023-02-21T09:13:26;9.93;;;4.50;;
2320;SDS011;15376;48.540;9.268;2023-02-21T09:15:53;4.30;;;4.00;;
2320;SDS011;15376;48.540;9.268;2023-02-21T09:18:19;7.83;;;4.73;;
2320;SDS011;15376;48.540;9.268;2023-02-21T09:20:44;6.27;;;4.60;;
2320;SDS011;15376;48.540;9.268;2023-02-21T09:23:16;7.80;;;5.73;;
2320;SDS011;15376;48.540;9.268;2023-02-21T09:25:45;12.73;;;4.80;;
2320;SDS011;15376;48.540;9.268;2023-02-21T09:28:12;9.33;;;5.33;;
2320;SDS011;15376;48.540;9.268;2023-02-21T09:30:38;6.97;;;4.47;;
2320;SDS011;15376;48.540;9.268;2023-02-21T09:33:03;5.63;;;4.33;;
2320;SDS011;15376;48.540;9.268;2023-02-21T09:35:29;8.07;;;6.40;;
2320;SDS011;15376;48.540;9.268;2023-02-21T09:37:55;5.03;;;4.53;;
2320;SDS011;15376;48.540;9.268;2023-02-21T09:43:35;10.30;;;5.07;;
2320;SDS011;15376;48.540;9.268;2023-02-21T09:46:27;5.93;;;4.70;;
2320;SDS011;15376;48.540;9.268;2023-02-21T09:48:53;3.63;;;3.20;;
2320;SDS011;15376;48.540;9.268;2023-02-21T09:51:19;4.03;;;3.63;;
2320;SDS011;15376;48.540;9.268;2023-02-21T09:53:45;3.60;;;3.30;;
2320;SDS011;15376;48.540;9.268;2023-02-21T09:56:25;9.50;;;3.80;;
2320;SDS011;15376;48.540;9.268;2023-02-21T09:58:53;4.80;;;3.60;;
2320;SDS011;15376;48.540;9.268;2023-02-21T10:01:29;5.30;;;3.93;;
2320;SDS011;15376;48.540;9.268;2023-02-21T10:04:14;5.00;;;3.10;;
2320;SDS011;15376;48.540;9.268;2023-02-21T10:09:58;5.60;;;3.50;;
2320;SDS011;15376;48.540;9.268;2023-02-21T10:12:33;4.63;;;3.37;;
2320;SDS011;15376;48.540;9.268;2023-02-21T10:20:29;5.10;;;3.97;;
2320;SDS011;15376;48.540;9.268;2023-02-21T10:22:59;13.97;;;7.00;;
2320;SDS011;15376;48.540;9.268;2023-02-21T10:25:28;9.10;;;7.30;;
2320;SDS011;15376;48.540;9.268;2023-02-21T10:27:56;8.20;;;6.10;;
2320;SDS011;15376;48.540;9.268;2023-02-21T10:30:26;7.07;;;5.87;;
2320;SDS011;15376;48.540;9.268;2023-02-21T10:32:59;6.30;;;5.50;;
2320;SDS011;15376;48.540;9.268;2023-02-21T10:35:30;9.10;;;5.00;;
2320;SDS011;15376;48.540;9.268;2023-02-21T10:38:00;7.20;;;4.83;;
2320;SDS011;15376;48.540;9.268;2023-02-21T10:45:58;6.50;;;4.83;;
2320;SDS011;15376;48.540;9.268;2023-02-21T10:48:24;9.73;;;4.17;;
2320;SDS011;15376;48.540;9.268;2023-02-21T10:54:18;9.50;;;7.97;;
2320;SDS011;15376;48.540;9.268;2023-02-21T10:56:47;10.20;;;4.77;;
2320;SDS011;15376;48.540;9.268;2023-02-21T10:59:22;6.50;;;4.10;;
2320;SDS011;15376;48.540;9.268;2023-02-21T11:01:51;4.30;;;3.23;;
2320;SDS011;15376;48.540;9.268;2023-02-21T11:06:47;5.10;;;3.30;;
2320;SDS011;15376;48.540;9.268;2023-02-21T11:09:23;3.73;;;3.33;;
2320;SDS011;15376;48.540;9.268;2023-02-21T11:15:01;5.00;;;3.43;;
2320;SDS011;15376;48.540;9.268;2023-02-21T11:17:28;5.33;;;3.00;;
2320;SDS011;15376;48.540;9.268;2023-02-21T11:20:03;4.50;;;3.53;;
2320;SDS011;15376;48.540;9.268;2023-02-21T11:22:41;2.93;;;2.63;;
2320;SDS011;15376;48.540;9.268;2023-02-21T11:30:34;3.63;;;2.87;;
2320;SDS011;15376;48.540;9.268;2023-02-21T11:33:02;3.63;;;3.30;;
2320;SDS011;15376;48.540;9.268;2023-02-21T11:35:42;3.97;;;2.03;;
2320;SDS011;15376;48.540;9.268;2023-02-21T11:43:45;1.70;;;1.60;;
2320;SDS011;15376;48.540;9.268;2023-02-21T11:51:53;1.90;;;1.30;;
2320;SDS011;15376;48.540;9.268;2023-02-21T11:54:27;2.40;;;1.60;;
2320;SDS011;15376;48.540;9.268;2023-02-21T12:02:23;3.87;;;1.40;;
2320;SDS011;15376;48.540;9.268;2023-02-21T12:16:30;1.23;;;1.13;;
2320;SDS011;15376;48.540;9.268;2023-02-21T12:24:36;1.30;;;1.17;;
2320;SDS011;15376;48.540;9.268;2023-02-21T12:32:50;1.20;;;1.10;;
2320;SDS011;15376;48.540;9.268;2023-02-21T12:38:00;2.50;;;1.17;;
2320;SDS011;15376;48.540;9.268;2023-02-21T12:46:25;2.50;;;1.60;;
2320;SDS011;15376;48.540;9.268;2023-02-21T12:51:37;1.00;;;0.90;;
2320;SDS011;15376;48.540;9.268;2023-02-21T12:54:09;1.20;;;1.07;;
2320;SDS011;15376;48.540;9.268;2023-02-21T12:56:49;1.37;;;1.10;;
2320;SDS011;15376;48.540;9.268;2023-02-21T12:59:29;1.40;;;1.27;;
2320;SDS011;15376;48.540;9.268;2023-02-21T13:02:03;1.40;;;1.10;;
2320;SDS011;15376;48.540;9.268;2023-02-21T13:04:47;1.17;;;1.03;;
2320;SDS011;15376;48.540;9.268;2023-02-21T13:10:17;2.00;;;1.50;;
2320;SDS011;15376;48.540;9.268;2023-02-21T13:12:49;1.40;;;1.10;;
2320;SDS011;15376;48.540;9.268;2023-02-21T13:15:21;1.73;;;1.20;;
2320;SDS011;15376;48.540;9.268;2023-02-21T13:17:49;1.60;;;1.13;;
2320;SDS011;15376;48.540;9.268;2023-02-21T13:20:23;1.37;;;1.00;;
2320;SDS011;15376;48.540;9.268;2023-02-21T13:28:55;1.57;;;1.20;;
2320;SDS011;15376;48.540;9.268;2023-02-21T13:31:26;1.37;;;1.10;;
2320;SDS011;15376;48.540;9.268;2023-02-21T13:34:06;2.07;;;1.10;;
2320;SDS011;15376;48.540;9.268;2023-02-21T13:41:37;3.30;;;1.27;;
2320;SDS011;15376;48.540;9.268;2023-02-21T13:44:07;1.20;;;1.10;;
2320;SDS011;15376;48.540;9.268;2023-02-21T14:10:55;1.60;;;1.50;;
2320;SDS011;15376;48.540;9.268;2023-02-21T14:13:28;2.30;;;2.10;;
2320;SDS011;15376;48.540;9.268;2023-02-21T14:18:41;3.43;;;1.40;;
2320;SDS011;15376;48.540;9.268;2023-02-21T14:23:56;2.27;;;1.67;;
2320;SDS011;15376;48.540;9.268;2023-02-21T14:26:35;2.20;;;1.70;;
2320;SDS011;15376;48.540;9.268;2023-02-21T14:29:28;1.70;;;1.23;;
2320;SDS011;15376;48.540;9.268;2023-02-21T14:39:50;1.93;;;1.77;;
2320;SDS011;15376;48.540;9.268;2023-02-21T14:50:30;2.90;;;1.93;;
2320;SDS011;15376;48.540;9.268;2023-02-21T14:55:48;1.70;;;1.50;;
2320;SDS011;15376;48.540;9.268;2023-02-21T15:04:24;3.77;;;1.60;;
2320;SDS011;15376;48.540;9.268;2023-02-21T15:07:09;4.07;;;2.53;;
2320;SDS011;15376;48.540;9.268;2023-02-21T15:09:36;1.70;;;1.60;;
2320;SDS011;15376;48.540;9.268;2023-02-21T15:12:04;2.27;;;1.87;;
2320;SDS011;15376;48.540;9.268;2023-02-21T15:14:40;4.03;;;1.97;;
2320;SDS011;15376;48.540;9.268;2023-02-21T15:17:18;3.33;;;1.57;;
2320;SDS011;15376;48.540;9.268;2023-02-21T15:19:46;2.60;;;1.90;;
2320;SDS011;15376;48.540;9.268;2023-02-21T15:22:25;3.97;;;2.03;;
2320;SDS011;15376;48.540;9.268;2023-02-21T15:27:32;3.27;;;2.03;;
2320;SDS011;15376;48.540;9.268;2023-02-21T15:30:53;1.90;;;1.80;;
2320;SDS011;15376;48.540;9.268;2023-02-21T15:33:13;3.30;;;2.07;;
2320;SDS011;15376;48.540;9.268;2023-02-21T15:35:45;11.60;;;2.10;;
2320;SDS011;15376;48.540;9.268;2023-02-21T15:38:45;4.27;;;2.07;;
2320;SDS011;15376;48.540;9.268;2023-02-21T15:52:04;1.73;;;1.63;;
2320;SDS011;15376;48.540;9.268;2023-02-21T15:54:34;3.23;;;1.90;;
2320;SDS011;15376;48.540;9.268;2023-02-21T15:59:35;2.83;;;2.63;;
2320;SDS011;15376;48.540;9.268;2023-02-21T16:02:05;6.03;;;2.27;;
2320;SDS011;15376;48.540;9.268;2023-02-21T16:04:40;3.87;;;1.93;;
2320;SDS011;15376;48.540;9.268;2023-02-21T16:07:18;6.07;;;2.07;;
2320;SDS011;15376;48.540;9.268;2023-02-21T16:10:02;2.90;;;2.20;;
2320;SDS011;15376;48.540;9.268;2023-02-21T16:12:40;4.13;;;2.23;;
2320;SDS011;15376;48.540;9.268;2023-02-21T16:17:42;3.00;;;2.27;;
2320;SDS011;15376;48.540;9.268;2023-02-21T16:22:42;9.33;;;2.93;;
2320;SDS011;15376;48.540;9.268;2023-02-21T16:27:41;4.63;;;2.63;;
2320;SDS011;15376;48.540;9.268;2023-02-21T16:30:27;7.83;;;2.50;;
2320;SDS011;15376;48.540;9.268;2023-02-21T16:32:59;6.37;;;2.50;;
2320;SDS011;15376;48.540;9.268;2023-02-21T16:35:28;3.63;;;2.30;;
2320;SDS011;15376;48.540;9.268;2023-02-21T16:37:56;6.73;;;2.93;;
2320;SDS011;15376;48.540;9.268;2023-02-21T16:40:27;2.80;;;2.40;;
2320;SDS011;15376;48.540;9.268;2023-02-21T16:42:59;4.53;;;2.77;;
2320;SDS011;15376;48.540;9.268;2023-02-21T16:45:26;2.40;;;2.20;;
2320;SDS011;15376;48.540;9.268;2023-02-21T16:47:56;5.73;;;2.90;;
2320;SDS011;15376;48.540;9.268;2023-02-21T16:50:28;2.83;;;2.50;;
2320;SDS011;15376;48.540;9.268;2023-02-21T16:52:56;4.10;;;2.43;;
2320;SDS011;15376;48.540;9.268;2023-02-21T16:55:22;4.63;;;2.33;;
2320;SDS011;15376;48.540;9.268;2023-02-21T16:57:48;3.90;;;2.50;;
2320;SDS011;15376;48.540;9.268;2023-02-21T17:00:15;3.90;;;2.60;;
2320;SDS011;15376;48.540;9.268;2023-02-21T17:02:44;4.23;;;3.20;;
2320;SDS011;15376;48.540;9.268;2023-02-21T17:05:10;3.47;;;2.57;;
2320;SDS011;15376;48.540;9.268;2023-02-21T17:07:36;13.73;;;2.87;;
2320;SDS011;15376;48.540;9.268;2023-02-21T17:10:02;6.93;;;3.53;;
2320;SDS011;15376;48.540;9.268;2023-02-21T17:12:28;7.70;;;2.77;;
2320;SDS011;15376;48.540;9.268;2023-02-21T17:14:53;8.20;;;5.03;;
2320;SDS011;15376;48.540;9.268;2023-02-21T17:17:19;9.73;;;6.45;;
2320;SDS011;15376;48.540;9.268;2023-02-21T17:19:44;7.70;;;6.38;;
2320;SDS011;15376;48.540;9.268;2023-02-21T17:22:09;13.73;;;11.50;;
2320;SDS011;15376;48.540;9.268;2023-02-21T17:24:35;9.13;;;6.60;;
2320;SDS011;15376;48.540;9.268;2023-02-21T17:27:00;5.83;;;5.10;;
2320;SDS011;15376;48.540;9.268;2023-02-21T17:29:25;6.93;;;5.03;;
2320;SDS011;15376;48.540;9.268;2023-02-21T17:31:54;6.00;;;4.07;;
2320;SDS011;15376;48.540;9.268;2023-02-21T17:34:20;5.20;;;4.20;;
2320;SDS011;15376;48.540;9.268;2023-02-21T17:36:50;5.97;;;4.60;;
2320;SDS011;15376;48.540;9.268;2023-02-21T17:39:16;6.97;;;4.00;;
2320;SDS011;15376;48.540;9.268;2023-02-21T17:41:49;5.30;;;3.50;;
2320;SDS011;15376;48.540;9.268;2023-02-21T17:44:16;4.00;;;3.70;;
2320;SDS011;15376;48.540;9.268;2023-02-21T17:46:49;4.30;;;3.70;;
2320;SDS011;15376;48.540;9.268;2023-02-21T17:49:20;7.70;;;4.60;;
2320;SDS011;15376;48.540;9.268;2023-02-21T17:51:47;5.57;;;3.77;;
2320;SDS011;15376;48.540;9.268;2023-02-21T17:54:13;5.13;;;3.10;;
2320;SDS011;15376;48.540;9.268;2023-02-21T17:56:39;8.53;;;2.80;;
2320;SDS011;15376;48.540;9.268;2023-02-21T17:59:05;4.23;;;3.13;;
2320;SDS011;15376;48.540;9.268;2023-02-21T18:01:30;6.80;;;3.27;;
2320;SDS011;15376;48.540;9.268;2023-02-21T18:03:56;5.70;;;3.50;;
2320;SDS011;15376;48.540;9.268;2023-02-21T18:06:21;5.30;;;3.00;;
2320;SDS011;15376;48.540;9.268;2023-02-21T18:08:47;6.80;;;3.60;;
2320;SDS011;15376;48.540;9.268;2023-02-21T18:11:13;4.80;;;3.40;;
2320;SDS011;15376;48.540;9.268;2023-02-21T18:13:40;4.70;;;3.50;;
2320;SDS011;15376;48.540;9.268;2023-02-21T18:16:06;8.20;;;4.17;;
2320;SDS011;15376;48.540;9.268;2023-02-21T18:18:32;5.00;;;3.30;;
2320;SDS011;15376;48.540;9.268;2023-02-21T18:20:58;6.33;;;4.10;;
2320;SDS011;15376;48.540;9.268;2023-02-21T18:23:24;4.30;;;3.10;;
2320;SDS011;15376;48.540;9.268;2023-02-21T18:25:50;5.53;;;4.97;;
2320;SDS011;15376;48.540;9.268;2023-02-21T18:28:15;4.33;;;3.50;;
2320;SDS011;15376;48.540;9.268;2023-02-21T18:30:41;4.90;;;3.37;;
2320;SDS011;15376;48.540;9.268;2023-02-21T18:33:06;6.53;;;4.60;;
2320;SDS011;15376;48.540;9.268;2023-02-21T18:35:32;5.10;;;4.57;;
2320;SDS011;15376;48.540;9.268;2023-02-21T18:37:57;10.43;;;6.50;;
2320;SDS011;15376;48.540;9.268;2023-02-21T18:40:25;10.20;;;6.73;;
2320;SDS011;15376;48.540;9.268;2023-02-21T18:43:01;13.03;;;8.77;;
2320;SDS011;15376;48.540;9.268;2023-02-21T18:45:29;8.80;;;6.37;;
2320;SDS011;15376;48.540;9.268;2023-02-21T18:47:56;7.07;;;6.23;;
2320;SDS011;15376;48.540;9.268;2023-02-21T18:50:26;4.28;;;3.80;;